Time;durP1;ratioP1;P1;durP2;ratioP2;P2;SDS_P1;SDS_P2;PMS_P1;PMS_P2;Temp;Humidity;BMP_temperature;BMP_pressure;BME280_temperature;BME280_humidity;BME280_pressure;Samples;Min_cycle;Max_cycle;Signal;HPM_P1;HPM_P2
2022/10/29 00:00:25;;;;;;;20.63;8.17;;;15.60;99.90;;;;;;5030300;28;20268;-71
2022/10/29 00:02:51;;;;;;;21.40;8.20;;;15.50;99.90;;;;;;5035979;28;20251;-74
2022/10/29 00:05:16;;;;;;;14.00;7.27;;;15.30;99.90;;;;;;5051380;28;20222;-72
2022/10/29 00:07:42;;;;;;;10.47;7.07;;;15.10;99.90;;;;;;5029488;28;20180;-72
2022/10/29 00:10:08;;;;;;;13.77;7.03;;;14.40;99.90;;;;;;5034752;28;20467;-72
2022/10/29 00:12:35;;;;;;;19.20;8.17;;;12.70;99.90;;;;;;5024415;28;20216;-72
2022/10/29 00:15:01;;;;;;;14.80;8.23;;;15.80;99.90;;;;;;5034469;28;20215;-72
2022/10/29 00:17:26;;;;;;;13.77;7.13;;;15.70;99.90;;;;;;5051788;28;20536;-72
2022/10/29 00:19:52;;;;;;;15.73;6.73;;;15.70;99.90;;;;;;5032100;28;20212;-76
2022/10/29 00:22:18;;;;;;;12.70;6.23;;;15.70;99.90;;;;;;5024497;28;20592;-75
2022/10/29 00:24:44;;;;;;;10.63;6.47;;;15.60;99.90;;;;;;5033606;28;20211;-75
2022/10/29 00:27:09;;;;;;;14.00;6.10;;;15.50;99.90;;;;;;5025225;28;20247;-77
2022/10/29 00:29:35;;;;;;;11.37;6.67;;;15.50;99.90;;;;;;5024348;28;20182;-78
2022/10/29 00:32:01;;;;;;;13.53;6.53;;;15.40;99.90;;;;;;5034386;28;20263;-78
2022/10/29 00:34:27;;;;;;;14.30;6.67;;;15.30;99.90;;;;;;5030187;28;20196;-76
2022/10/29 00:36:53;;;;;;;18.27;6.27;;;15.20;99.90;;;;;;5035391;28;20271;-76
2022/10/29 00:39:19;;;;;;;11.47;6.30;;;15.10;99.90;;;;;;5030803;28;20675;-77
2022/10/29 00:41:44;;;;;;;12.57;6.23;;;15.00;99.90;;;;;;5035681;28;20192;-76
2022/10/29 00:44:19;;;;;;;11.30;6.17;;;14.90;99.90;;;;;;5031904;28;20230;-77
2022/10/29 00:46:50;;;;;;;14.43;7.63;;;14.20;99.90;;;;;;5029256;28;20208;-76
2022/10/29 00:49:16;;;;;;;9.13;6.33;;;13.30;99.90;;;;;;5031308;28;20180;-77
2022/10/29 00:51:44;;;;;;;21.47;6.87;;;15.30;99.90;;;;;;5030104;28;20487;-78
2022/10/29 00:54:12;;;;;;;13.20;6.10;;;15.30;99.90;;;;;;5029383;28;20181;-77
2022/10/29 00:56:46;;;;;;;13.93;6.07;;;15.20;99.90;;;;;;5017197;28;20593;-78
2022/10/29 00:59:16;;;;;;;11.13;6.43;;;15.20;99.90;;;;;;5034334;28;20187;-77
2022/10/29 01:01:43;;;;;;;12.23;7.77;;;15.20;99.90;;;;;;5035105;28;20196;-77
2022/10/29 01:04:10;;;;;;;14.27;6.93;;;15.20;99.90;;;;;;5034308;28;20191;-79
2022/10/29 01:06:37;;;;;;;16.97;7.13;;;15.20;99.90;;;;;;5050480;28;20581;-77
2022/10/29 01:09:03;;;;;;;7.00;6.13;;;15.20;99.90;;;;;;5042942;28;20263;-77
2022/10/29 01:11:41;;;;;;;14.97;6.77;;;15.20;99.90;;;;;;5022850;28;20276;-76
2022/10/29 01:14:30;;;;;;;25.13;10.10;;;15.20;99.90;;;;;;5026677;28;20185;-77
2022/10/29 01:17:38;;;;;;;18.23;6.97;;;15.20;99.90;;;;;;5022363;28;20247;-77
2022/10/29 01:20:25;;;;;;;17.60;7.80;;;15.20;99.90;;;;;;5029652;28;20561;-76
2022/10/29 01:23:00;;;;;;;21.63;8.43;;;15.20;99.90;;;;;;5046910;28;20189;-77
2022/10/29 01:25:54;;;;;;;18.17;6.97;;;15.20;99.90;;;;;;5024640;28;20200;-75
2022/10/29 01:28:44;;;;;;;13.57;6.03;;;15.20;99.90;;;;;;5026056;28;20184;-79
2022/10/29 01:31:23;;;;;;;16.13;6.63;;;15.30;99.90;;;;;;5028382;28;20184;-74
2022/10/29 01:33:51;;;;;;;16.27;7.60;;;15.30;99.90;;;;;;5023830;28;20219;-73
2022/10/29 01:36:32;;;;;;;9.43;5.93;;;15.20;99.90;;;;;;5029734;28;20304;-73
2022/10/29 01:39:12;;;;;;;10.30;6.27;;;15.20;99.90;;;;;;5031673;28;20184;-72
2022/10/29 01:42:19;;;;;;;21.33;8.03;;;15.20;99.90;;;;;;5030549;28;20196;-72
2022/10/29 01:44:52;;;;;;;12.40;7.27;;;15.30;99.90;;;;;;5010518;28;20264;-73
2022/10/29 01:47:19;;;;;;;24.20;8.20;;;15.30;99.90;;;;;;5030822;28;20278;-73
2022/10/29 01:49:52;;;;;;;12.03;6.90;;;15.20;99.90;;;;;;5029328;28;20275;-72
2022/10/29 01:52:20;;;;;;;12.13;6.47;;;15.20;99.90;;;;;;5034839;28;20215;-73
2022/10/29 01:54:47;;;;;;;14.33;7.27;;;15.20;99.90;;;;;;5034797;28;20241;-72
2022/10/29 01:57:27;;;;;;;13.07;6.93;;;15.10;99.90;;;;;;5046354;28;20187;-72
2022/10/29 01:59:56;;;;;;;11.33;6.30;;;15.10;99.90;;;;;;5032116;28;20189;-72
2022/10/29 02:02:36;;;;;;;12.83;6.43;;;15.00;99.90;;;;;;5025036;28;20224;-73
2022/10/29 02:05:07;;;;;;;13.93;7.33;;;15.00;99.90;;;;;;5031124;28;20191;-72
2022/10/29 02:07:50;;;;;;;12.90;6.23;;;14.90;99.90;;;;;;5037808;28;20177;-73
2022/10/29 02:10:57;;;;;;;9.83;6.27;;;14.70;99.90;;;;;;5032324;28;20197;-71
2022/10/29 02:13:33;;;;;;;16.07;6.30;;;14.60;99.90;;;;;;5024452;28;20699;-73
2022/10/29 02:16:05;;;;;;;11.90;6.93;;;14.40;99.90;;;;;;5031549;28;20183;-74
2022/10/29 02:18:37;;;;;;;13.33;7.13;;;13.90;99.90;;;;;;5022384;28;20191;-72
2022/10/29 02:21:03;;;;;;;8.43;6.07;;;-11.10;99.90;;;;;;5033213;28;20197;-72
2022/10/29 02:23:29;;;;;;;15.47;7.40;;;-12.80;99.90;;;;;;5032316;28;20189;-71
2022/10/29 02:25:54;;;;;;;11.83;7.23;;;-15.00;99.90;;;;;;5049831;28;20287;-73
2022/10/29 02:28:20;;;;;;;10.50;6.40;;;-14.50;99.90;;;;;;5037412;28;20208;-75
2022/10/29 02:30:46;;;;;;;12.20;8.27;;;-11.50;99.90;;;;;;5033205;28;20207;-71
2022/10/29 02:33:12;;;;;;;15.60;8.07;;;-10.90;99.90;;;;;;5051900;28;20184;-73
2022/10/29 02:35:37;;;;;;;13.10;6.87;;;-10.40;99.90;;;;;;5031246;28;20588;-71
2022/10/29 02:38:03;;;;;;;10.20;5.80;;;-10.00;99.90;;;;;;5032786;28;20267;-73
2022/10/29 02:40:29;;;;;;;14.40;6.90;;;-10.00;99.90;;;;;;5029703;28;20189;-71
2022/10/29 02:42:54;;;;;;;10.30;6.30;;;-10.50;99.90;;;;;;5032807;28;20189;-74
2022/10/29 02:45:20;;;;;;;9.47;6.87;;;-10.90;99.90;;;;;;5037632;28;20262;-71
2022/10/29 02:47:46;;;;;;;11.07;6.20;;;-11.20;99.90;;;;;;5037534;28;20215;-71
2022/10/29 02:50:12;;;;;;;13.37;6.37;;;-10.90;99.90;;;;;;5053223;28;20208;-72
2022/10/29 02:52:38;;;;;;;11.70;5.87;;;-11.40;99.90;;;;;;5037478;28;20291;-71
2022/10/29 02:55:04;;;;;;;14.60;7.13;;;-12.20;99.90;;;;;;5037507;28;20227;-73
2022/10/29 02:57:30;;;;;;;16.17;6.57;;;-12.20;99.90;;;;;;5035301;28;20520;-72
2022/10/29 02:59:56;;;;;;;9.17;5.87;;;-11.00;99.90;;;;;;5027945;28;20176;-73
2022/10/29 03:02:22;;;;;;;9.00;6.07;;;-10.30;99.90;;;;;;5026938;28;20217;-73
2022/10/29 03:04:47;;;;;;;9.03;6.53;;;-11.40;99.90;;;;;;5022755;28;20652;-74
2022/10/29 03:07:13;;;;;;;17.40;7.20;;;-11.00;99.90;;;;;;5031766;28;20270;-74
2022/10/29 03:09:39;;;;;;;16.60;6.03;;;-11.00;99.90;;;;;;5026669;28;20180;-73
2022/10/29 03:12:05;;;;;;;16.07;6.60;;;-11.60;99.90;;;;;;5052343;28;20173;-73
2022/10/29 03:14:31;;;;;;;11.23;7.63;;;-11.80;99.90;;;;;;5030000;28;20536;-74
2022/10/29 03:16:56;;;;;;;14.60;7.47;;;-12.40;99.90;;;;;;5033173;28;20185;-72
2022/10/29 03:19:22;;;;;;;7.03;5.30;;;-11.60;99.90;;;;;;5024303;28;20236;-73
2022/10/29 03:21:48;;;;;;;12.00;7.27;;;-12.60;99.90;;;;;;5032120;28;20189;-73
2022/10/29 03:24:14;;;;;;;7.70;6.90;;;-13.40;99.90;;;;;;5029377;28;20184;-72
2022/10/29 03:26:39;;;;;;;21.43;8.63;;;-13.80;99.90;;;;;;5032120;28;20196;-74
2022/10/29 03:29:05;;;;;;;10.00;7.00;;;-13.30;99.90;;;;;;5036698;28;20180;-73
2022/10/29 03:31:30;;;;;;;11.80;7.10;;;-13.50;99.90;;;;;;5030507;28;20216;-72
2022/10/29 03:33:56;;;;;;;13.87;7.37;;;-12.50;99.90;;;;;;5035521;28;20497;-72
2022/10/29 03:36:22;;;;;;;12.10;7.27;;;-14.40;99.90;;;;;;5018873;28;20189;-72
2022/10/29 03:38:48;;;;;;;12.03;6.70;;;-13.70;99.90;;;;;;5030261;28;20303;-73
2022/10/29 03:41:14;;;;;;;12.60;6.87;;;-12.70;99.90;;;;;;5033956;28;20180;-74
2022/10/29 03:43:39;;;;;;;13.87;6.63;;;-12.90;99.90;;;;;;5036387;28;20180;-72
2022/10/29 03:46:06;;;;;;;8.37;6.07;;;-11.30;99.90;;;;;;5036267;28;20620;-76
2022/10/29 03:48:32;;;;;;;16.20;7.50;;;-12.50;99.90;;;;;;5030923;28;20235;-72
2022/10/29 03:51:01;;;;;;;16.83;7.93;;;-13.10;99.90;;;;;;5035721;28;20180;-74
2022/10/29 03:53:27;;;;;;;20.23;8.40;;;-14.20;99.90;;;;;;5023802;28;20183;-75
2022/10/29 03:55:54;;;;;;;23.83;7.73;;;-16.30;99.90;;;;;;5035258;28;20260;-71
2022/10/29 03:58:21;;;;;;;16.43;8.63;;;-15.50;99.90;;;;;;5036542;28;20226;-72
2022/10/29 04:00:57;;;;;;;15.20;8.33;;;-15.30;99.90;;;;;;5032881;28;20592;-74
2022/10/29 04:03:23;;;;;;;20.90;7.90;;;-14.70;99.90;;;;;;5031305;28;20208;-73
2022/10/29 04:05:50;;;;;;;11.00;7.10;;;-14.30;99.90;;;;;;5034485;28;20217;-76
2022/10/29 04:08:16;;;;;;;13.30;7.53;;;-15.20;99.90;;;;;;5028398;28;20177;-74
2022/10/29 04:10:46;;;;;;;9.87;7.37;;;-13.70;99.90;;;;;;5028495;28;20212;-76
2022/10/29 04:13:13;;;;;;;12.13;6.43;;;-13.90;99.90;;;;;;5022485;28;20204;-72
2022/10/29 04:15:39;;;;;;;11.73;6.93;;;-12.60;99.90;;;;;;5030892;28;20615;-72
2022/10/29 04:18:05;;;;;;;14.43;7.77;;;-13.60;99.90;;;;;;5034681;28;20530;-75
2022/10/29 04:20:31;;;;;;;13.70;6.67;;;-14.00;99.90;;;;;;5017424;28;20209;-74
2022/10/29 04:22:57;;;;;;;19.07;7.47;;;-16.30;99.90;;;;;;5018676;28;20224;-74
2022/10/29 04:25:22;;;;;;;15.53;8.43;;;-17.20;99.90;;;;;;5025801;28;20184;-71
2022/10/29 04:27:48;;;;;;;23.00;9.60;;;-15.10;99.90;;;;;;5032201;28;20184;-71
2022/10/29 04:30:14;;;;;;;16.03;9.07;;;-18.70;99.90;;;;;;5030924;28;20188;-72
2022/10/29 04:32:40;;;;;;;12.83;8.27;;;-19.00;99.90;;;;;;5031624;28;20205;-73
2022/10/29 04:35:06;;;;;;;30.60;10.53;;;-15.90;99.90;;;;;;5045954;28;20173;-76
2022/10/29 04:37:31;;;;;;;21.80;9.60;;;-20.70;99.90;;;;;;5035686;28;20181;-73
2022/10/29 04:39:57;;;;;;;11.50;8.27;;;-18.10;99.90;;;;;;5035486;28;20603;-74
2022/10/29 04:42:23;;;;;;;12.67;9.27;;;-14.60;99.90;;;;;;5036107;28;20240;-72
2022/10/29 04:44:48;;;;;;;17.63;8.83;;;-15.20;99.90;;;;;;5035201;28;20307;-71
2022/10/29 04:47:14;;;;;;;21.17;9.17;;;-15.30;99.90;;;;;;5035520;28;20244;-75
2022/10/29 04:49:40;;;;;;;18.33;10.33;;;15.00;99.90;;;;;;5028487;28;20185;-74
2022/10/29 04:52:06;;;;;;;17.43;7.63;;;16.00;99.90;;;;;;5039231;28;20183;-77
2022/10/29 04:54:32;;;;;;;17.73;9.83;;;16.00;99.90;;;;;;5023652;28;20195;-75
2022/10/29 04:56:57;;;;;;;15.17;8.90;;;16.00;99.90;;;;;;5024311;28;20426;-75
2022/10/29 04:59:23;;;;;;;10.60;7.87;;;16.10;99.90;;;;;;5047407;28;20188;-79
2022/10/29 05:01:49;;;;;;;17.10;7.33;;;16.10;99.90;;;;;;5034543;28;20209;-76
2022/10/29 05:04:14;;;;;;;20.20;8.17;;;16.10;99.90;;;;;;5030226;28;20548;-76
2022/10/29 05:06:40;;;;;;;11.83;8.43;;;16.10;99.90;;;;;;5033873;28;20287;-75
2022/10/29 05:09:06;;;;;;;16.37;6.43;;;16.10;99.90;;;;;;5033234;28;20675;-75
2022/10/29 05:11:31;;;;;;;15.33;8.50;;;16.10;99.90;;;;;;5030607;28;20181;-77
2022/10/29 05:13:57;;;;;;;14.93;8.90;;;16.10;99.90;;;;;;5034626;28;20212;-76
2022/10/29 05:16:23;;;;;;;14.30;7.57;;;16.10;99.90;;;;;;5033612;28;20204;-75
2022/10/29 05:18:49;;;;;;;10.23;7.20;;;16.10;99.90;;;;;;5033830;28;20651;-77
2022/10/29 05:21:14;;;;;;;17.73;8.97;;;16.00;99.90;;;;;;5034409;28;20184;-75
2022/10/29 05:23:40;;;;;;;16.40;10.03;;;16.00;99.90;;;;;;5033646;28;20209;-72
2022/10/29 05:26:06;;;;;;;16.40;7.87;;;15.90;99.90;;;;;;5036787;28;20236;-71
2022/10/29 05:28:33;;;;;;;19.20;8.33;;;15.90;99.90;;;;;;5035069;28;20177;-71
2022/10/29 05:31:01;;;;;;;11.07;7.67;;;15.90;99.90;;;;;;5033360;28;20172;-71
2022/10/29 05:33:27;;;;;;;22.97;8.13;;;15.80;99.90;;;;;;5038222;28;20187;-71
2022/10/29 05:35:53;;;;;;;19.50;9.27;;;15.70;99.90;;;;;;5035912;28;20188;-70
2022/10/29 05:38:19;;;;;;;21.63;9.57;;;15.60;99.90;;;;;;5038541;28;20180;-71
2022/10/29 05:40:45;;;;;;;19.80;9.07;;;15.60;99.90;;;;;;5049878;28;20222;-71
2022/10/29 05:43:13;;;;;;;16.80;7.70;;;15.60;99.90;;;;;;5037256;28;20589;-75
2022/10/29 05:45:39;;;;;;;18.53;8.60;;;15.50;99.90;;;;;;5037267;28;20251;-72
2022/10/29 05:48:05;;;;;;;14.70;7.50;;;15.40;99.90;;;;;;5034221;28;20603;-72
2022/10/29 05:50:33;;;;;;;11.33;7.87;;;15.30;99.90;;;;;;5035211;28;20243;-72
2022/10/29 05:53:05;;;;;;;16.30;10.17;;;15.20;99.90;;;;;;5036065;28;20259;-71
2022/10/29 05:55:32;;;;;;;16.90;8.00;;;15.10;99.90;;;;;;5034322;28;20547;-72
2022/10/29 05:58:00;;;;;;;14.30;8.03;;;15.00;99.90;;;;;;5037261;28;20180;-71
2022/10/29 06:00:27;;;;;;;12.10;8.93;;;15.00;99.90;;;;;;5035911;28;20189;-71
2022/10/29 06:02:53;;;;;;;16.47;8.43;;;14.90;99.90;;;;;;5033823;28;20220;-72
2022/10/29 06:05:19;;;;;;;13.57;7.67;;;14.80;99.90;;;;;;5037278;28;20196;-72
2022/10/29 06:07:45;;;;;;;15.70;9.67;;;14.60;99.90;;;;;;5032196;28;20184;-71
2022/10/29 06:10:11;;;;;;;12.40;7.57;;;14.40;99.90;;;;;;5034014;28;20281;-72
2022/10/29 06:12:37;;;;;;;17.17;8.60;;;13.90;99.90;;;;;;5036426;28;20184;-74
2022/10/29 06:15:03;;;;;;;14.47;8.27;;;-11.50;99.90;;;;;;5031106;28;20208;-72
2022/10/29 06:17:29;;;;;;;11.50;9.00;;;-13.10;99.90;;;;;;5028894;28;20184;-71
2022/10/29 06:19:54;;;;;;;17.33;8.47;;;-12.70;99.90;;;;;;5029382;28;20235;-71
2022/10/29 06:22:20;;;;;;;15.43;8.10;;;-12.00;99.90;;;;;;5029585;28;20184;-71
2022/10/29 06:24:46;;;;;;;11.10;7.10;;;-11.90;99.90;;;;;;5021584;28;20181;-72
2022/10/29 06:27:12;;;;;;;14.97;9.37;;;-12.30;99.90;;;;;;5050937;28;20208;-72
2022/10/29 06:29:37;;;;;;;15.43;9.07;;;-11.20;99.90;;;;;;5033940;28;20180;-72
2022/10/29 06:32:03;;;;;;;13.10;7.33;;;-10.80;99.90;;;;;;5037680;28;20243;-73
2022/10/29 06:34:29;;;;;;;19.87;8.40;;;-11.90;99.90;;;;;;5030461;28;20188;-73
2022/10/29 06:36:55;;;;;;;12.37;8.87;;;-11.90;99.90;;;;;;5033173;28;20234;-76
2022/10/29 06:39:20;;;;;;;15.33;9.57;;;-12.30;99.90;;;;;;5046311;28;20197;-77
2022/10/29 06:41:46;;;;;;;19.37;9.00;;;-11.80;99.90;;;;;;5037182;28;20212;-79
2022/10/29 06:44:12;;;;;;;15.50;9.13;;;-10.30;99.90;;;;;;5029087;28;20562;-85
2022/10/29 06:46:41;;;;;;;14.27;9.50;;;-10.30;99.90;;;;;;5033207;28;20211;-77
2022/10/29 06:49:06;;;;;;;13.17;8.17;;;-8.50;99.90;;;;;;5037642;28;20276;-82
2022/10/29 06:51:32;;;;;;;30.90;10.53;;;-8.70;99.90;;;;;;5037379;28;20264;-79
2022/10/29 06:53:58;;;;;;;19.97;10.27;;;-9.30;99.90;;;;;;5035540;28;20177;-81
2022/10/29 06:56:24;;;;;;;17.90;8.77;;;-8.80;99.90;;;;;;5035215;28;20188;-81
2022/10/29 06:58:49;;;;;;;9.50;8.50;;;-9.20;99.90;;;;;;5049252;28;20577;-84
2022/10/29 07:01:15;;;;;;;15.47;9.73;;;-8.70;99.90;;;;;;5034878;28;20208;-82
2022/10/29 07:03:41;;;;;;;16.43;9.67;;;-8.00;99.90;;;;;;5030110;28;20213;-77
2022/10/29 07:06:06;;;;;;;12.67;8.87;;;-11.60;99.90;;;;;;5024204;28;20239;-79
2022/10/29 07:08:33;;;;;;;13.40;8.70;;;-10.30;99.90;;;;;;5028285;28;20185;-80
2022/10/29 07:10:58;;;;;;;17.93;10.10;;;-10.10;99.90;;;;;;5031738;28;20185;-74
2022/10/29 07:13:24;;;;;;;13.40;9.23;;;-10.60;99.90;;;;;;5029154;28;20613;-71
2022/10/29 07:15:50;;;;;;;19.37;9.63;;;-9.40;99.90;;;;;;5018194;28;20486;-71
2022/10/29 07:18:16;;;;;;;17.03;8.47;;;-10.00;99.90;;;;;;5020995;28;20192;-71
2022/10/29 07:20:44;;;;;;;16.63;8.67;;;-10.00;99.90;;;;;;5036887;28;20184;-72
2022/10/29 07:23:11;;;;;;;11.97;7.93;;;-12.00;99.90;;;;;;5036359;28;20250;-72
2022/10/29 07:25:37;;;;;;;18.13;8.00;;;-14.60;99.90;;;;;;5031438;28;20266;-73
2022/10/29 07:28:21;;;;;;;18.10;7.63;;;-12.30;99.90;;;;;;5033493;28;20545;-74
2022/10/29 07:30:48;;;;;;;12.03;8.17;;;-12.90;99.90;;;;;;5033269;28;20180;-73
2022/10/29 07:33:15;;;;;;;11.53;7.40;;;-15.20;99.90;;;;;;5046259;28;20215;-72
2022/10/29 07:35:41;;;;;;;17.27;7.60;;;-17.20;99.90;;;;;;5016820;28;20192;-71
2022/10/29 07:38:08;;;;;;;13.30;8.67;;;-18.70;99.90;;;;;;5041396;28;20189;-74
2022/10/29 07:40:34;;;;;;;12.67;7.03;;;-17.60;99.90;;;;;;5034314;28;20200;-70
2022/10/29 07:42:59;;;;;;;11.83;7.33;;;-15.90;99.90;;;;;;5032560;28;20193;-69
2022/10/29 07:45:25;;;;;;;14.53;7.00;;;-18.70;99.90;;;;;;5036356;28;20184;-70
2022/10/29 07:47:58;;;;;;;13.33;6.37;;;-16.40;99.90;;;;;;5030560;28;20192;-69
2022/10/29 07:50:24;;;;;;;21.10;6.83;;;-21.20;99.90;;;;;;5036406;28;20469;-70
2022/10/29 07:52:50;;;;;;;17.17;5.93;;;-20.40;99.90;;;;;;5028750;28;20203;-69
2022/10/29 07:55:16;;;;;;;11.87;8.43;;;-23.90;99.90;;;;;;5028775;28;20216;-69
2022/10/29 07:57:42;;;;;;;13.00;6.33;;;-26.20;99.90;;;;;;5030172;28;20184;-69
2022/10/29 08:00:08;;;;;;;14.57;6.60;;;-22.50;99.90;;;;;;5035266;28;20172;-72
2022/10/29 08:02:33;;;;;;;18.40;9.00;;;-26.10;99.90;;;;;;5018077;28;20221;-70
2022/10/29 08:04:59;;;;;;;12.13;5.83;;;-21.60;99.90;;;;;;5031841;28;20181;-70
2022/10/29 08:07:25;;;;;;;30.10;8.23;;;-21.80;99.90;;;;;;5051648;28;20302;-71
2022/10/29 08:09:50;;;;;;;16.33;6.80;;;-30.80;99.90;;;;;;5035749;28;20188;-69
2022/10/29 08:12:16;;;;;;;13.50;5.97;;;-29.50;99.90;;;;;;5031873;28;20243;-70
2022/10/29 08:14:42;;;;;;;10.70;6.10;;;-21.60;99.90;;;;;;5045260;28;20184;-70
2022/10/29 08:17:07;;;;;;;17.20;7.43;;;-29.50;99.90;;;;;;5023366;28;20189;-70
2022/10/29 08:19:33;;;;;;;13.93;7.10;;;-27.60;99.90;;;;;;5025452;28;20192;-74
2022/10/29 08:21:59;;;;;;;19.43;5.87;;;-27.10;99.90;;;;;;5029425;28;20188;-70
2022/10/29 08:24:24;;;;;;;10.00;6.47;;;-28.40;99.90;;;;;;5027130;28;20184;-72
2022/10/29 08:26:50;;;;;;;11.73;5.97;;;-33.40;99.90;;;;;;5035799;28;20204;-69
2022/10/29 08:29:16;;;;;;;13.20;8.20;;;-27.90;99.90;;;;;;5045737;28;20204;-70
2022/10/29 08:31:42;;;;;;;12.77;6.00;;;-40.00;99.90;;;;;;5028198;28;20219;-69
2022/10/29 08:34:07;;;;;;;50.43;6.63;;;-35.40;99.90;;;;;;5027172;28;20195;-70
2022/10/29 08:36:33;;;;;;;15.77;5.83;;;-40.00;99.90;;;;;;5030691;28;20192;-70
2022/10/29 08:38:59;;;;;;;7.50;4.97;;;-40.00;99.90;;;;;;5029517;28;21078;-69
2022/10/29 08:41:24;;;;;;;11.13;5.90;;;-40.00;99.90;;;;;;5036584;28;20272;-71
2022/10/29 08:44:13;;;;;;;14.87;6.17;;;-40.00;99.90;;;;;;5035884;28;20242;-71
2022/10/29 08:46:38;;;;;;;9.97;6.87;;;-40.00;99.90;;;;;;5030892;28;20235;-71
2022/10/29 08:49:28;;;;;;;20.73;5.97;;;-40.00;99.90;;;;;;5029430;28;20181;-73
2022/10/29 08:52:10;;;;;;;11.37;5.57;;;-40.00;99.90;;;;;;5026016;28;20322;-70
2022/10/29 08:54:39;;;;;;;14.73;5.07;;;-40.00;99.90;;;;;;5030099;28;20185;-69
2022/10/29 08:57:14;;;;;;;16.77;6.53;;;-40.00;99.90;;;;;;5035507;28;20195;-72
2022/10/29 09:00:01;;;;;;;17.50;6.30;;;-40.00;99.90;;;;;;5035596;28;20199;-70
2022/10/29 09:02:28;;;;;;;18.77;5.60;;;-40.00;99.90;;;;;;5030677;28;20227;-71
2022/10/29 09:04:54;;;;;;;7.20;4.13;;;-40.00;99.90;;;;;;5035357;28;20191;-74
2022/10/29 09:07:45;;;;;;;13.07;5.07;;;-40.00;99.90;;;;;;5040218;28;20212;-69
2022/10/29 09:10:35;;;;;;;13.77;6.33;;;-40.00;99.90;;;;;;5035197;28;20177;-72
2022/10/29 09:13:21;;;;;;;7.97;4.23;;;-40.00;99.90;;;;;;5034083;28;20187;-71
2022/10/29 09:16:08;;;;;;;10.43;5.83;;;-40.00;99.90;;;;;;5027419;28;20193;-70
2022/10/29 09:18:52;;;;;;;11.77;4.90;;;-40.00;99.90;;;;;;5029336;28;20196;-71
2022/10/29 09:21:21;;;;;;;11.27;4.57;;;-40.00;99.90;;;;;;5037687;28;20211;-70
2022/10/29 09:24:08;;;;;;;14.23;5.37;;;-40.00;99.90;;;;;;5027745;28;20537;-70
2022/10/29 09:26:58;;;;;;;20.30;5.63;;;-40.00;99.90;;;;;;5020923;28;20220;-72
2022/10/29 09:29:45;;;;;;;13.17;5.77;;;-40.00;99.90;;;;;;5035865;28;20180;-70
2022/10/29 09:32:18;;;;;;;7.47;4.80;;;-40.00;99.90;;;;;;5036859;28;20188;-71
2022/10/29 09:34:54;;;;;;;7.23;4.17;;;-40.00;99.90;;;;;;5036724;28;20197;-70
2022/10/29 09:37:39;;;;;;;12.57;4.47;;;-40.00;99.90;;;;;;5035610;28;20568;-70
2022/10/29 09:40:34;;;;;;;12.00;4.53;;;-40.00;99.90;;;;;;5029573;28;20211;-71
2022/10/29 09:43:27;;;;;;;17.17;5.80;;;-40.00;99.90;;;;;;5027731;28;20196;-69
2022/10/29 09:46:17;;;;;;;15.17;4.83;;;-40.00;99.90;;;;;;5024695;28;20211;-71
2022/10/29 09:48:51;;;;;;;10.73;4.93;;;-40.00;99.90;;;;;;5031121;28;20200;-71
2022/10/29 09:51:26;;;;;;;13.37;6.20;;;-40.00;99.90;;;;;;5038824;28;20177;-71
2022/10/29 09:53:52;;;;;;;10.63;5.70;;;-40.00;99.90;;;;;;5020575;28;20181;-69
2022/10/29 09:56:18;;;;;;;11.60;4.37;;;-40.00;99.90;;;;;;5049395;28;20184;-72
2022/10/29 09:58:47;;;;;;;12.67;7.20;;;-40.00;99.90;;;;;;5038811;28;20502;-71
2022/10/29 10:01:13;;;;;;;13.87;5.60;;;-40.00;99.90;;;;;;5038491;28;20202;-69
2022/10/29 10:03:47;;;;;;;14.40;5.00;;;-40.00;99.90;;;;;;5053518;28;20208;-72
2022/10/29 10:06:15;;;;;;;12.90;4.93;;;-40.00;99.90;;;;;;5045022;28;20212;-71
2022/10/29 10:09:03;;;;;;;12.27;5.77;;;-40.00;99.90;;;;;;5024550;28;20181;-71
2022/10/29 10:11:38;;;;;;;12.47;4.67;;;-40.00;99.90;;;;;;5026464;28;20182;-71
2022/10/29 10:14:18;;;;;;;10.87;4.73;;;-40.00;99.90;;;;;;5027051;28;20184;-70
2022/10/29 10:16:44;;;;;;;13.17;5.47;;;-40.00;99.90;;;;;;5019546;28;20543;-70
2022/10/29 10:19:25;;;;;;;11.97;5.33;;;-40.00;99.90;;;;;;5020545;28;20185;-71
2022/10/29 10:22:00;;;;;;;14.53;5.47;;;-40.00;99.90;;;;;;5026633;28;20188;-69
2022/10/29 10:24:33;;;;;;;23.07;5.80;;;-40.00;99.90;;;;;;5024406;28;20192;-70
2022/10/29 10:27:00;;;;;;;21.73;6.70;;;-40.00;99.90;;;;;;5031231;28;20193;-73
2022/10/29 10:29:27;;;;;;;25.37;7.60;;;-40.00;99.90;;;;;;5045713;28;20176;-71
2022/10/29 10:31:55;;;;;;;17.90;6.70;;;-40.00;99.90;;;;;;5036798;28;20272;-71
2022/10/29 10:34:35;;;;;;;10.43;6.17;;;-40.00;99.90;;;;;;5035784;28;20231;-71
2022/10/29 10:37:09;;;;;;;13.30;4.93;;;-40.00;99.90;;;;;;5025407;28;20207;-74
2022/10/29 10:39:42;;;;;;;13.17;5.70;;;-40.00;99.90;;;;;;5035514;28;20298;-70
2022/10/29 10:42:16;;;;;;;12.80;6.33;;;-40.00;99.90;;;;;;5019934;28;20189;-71
2022/10/29 10:44:58;;;;;;;19.10;6.97;;;-40.00;99.90;;;;;;5030602;28;20184;-71
2022/10/29 10:47:27;;;;;;;11.53;5.93;;;-40.00;99.90;;;;;;5033936;28;20230;-70
2022/10/29 10:49:55;;;;;;;17.30;6.53;;;-40.00;99.90;;;;;;5037438;28;20177;-74
2022/10/29 10:52:26;;;;;;;9.00;5.93;;;-40.00;99.90;;;;;;5033845;28;20184;-74
2022/10/29 10:55:21;;;;;;;22.37;7.33;;;-40.00;99.90;;;;;;5019215;28;20178;-72
2022/10/29 10:57:55;;;;;;;13.10;6.00;;;-40.00;99.90;;;;;;5018860;28;20189;-70
2022/10/29 11:00:21;;;;;;;15.23;6.97;;;-40.00;99.90;;;;;;5031080;28;20180;-71
2022/10/29 11:02:59;;;;;;;10.20;4.87;;;-40.00;99.90;;;;;;5032056;28;20213;-74
2022/10/29 11:05:40;;;;;;;12.93;6.60;;;-40.00;99.90;;;;;;5031413;28;20189;-75
2022/10/29 11:08:25;;;;;;;19.93;6.33;;;-40.00;99.90;;;;;;5023641;28;20189;-74
2022/10/29 11:10:57;;;;;;;18.07;7.93;;;-40.00;99.90;;;;;;5033204;28;20191;-76
2022/10/29 11:13:31;;;;;;;17.57;6.87;;;-40.00;99.60;;;;;;5028900;28;20255;-76
2022/10/29 11:16:15;;;;;;;11.83;4.60;;;-40.00;99.90;;;;;;5027261;28;20549;-75
2022/10/29 11:18:47;;;;;;;12.80;5.00;;;-40.00;99.90;;;;;;5030488;28;20329;-75
2022/10/29 11:22:04;;;;;;;16.53;5.20;;;-40.00;99.80;;;;;;5031777;28;20187;-75
2022/10/29 11:24:33;;;;;;;22.23;5.60;;;-40.00;99.50;;;;;;5024443;28;20308;-75
2022/10/29 11:27:05;;;;;;;15.93;5.13;;;-40.00;96.90;;;;;;5025288;28;20566;-77
2022/10/29 11:29:46;;;;;;;14.57;5.00;;;-40.00;96.60;;;;;;5031322;28;20186;-76
2022/10/29 11:32:14;;;;;;;9.50;3.97;;;-40.00;93.90;;;;;;5029603;28;20178;-77
2022/10/29 11:35:03;;;;;;;11.63;5.13;;;-40.00;92.90;;;;;;5029900;28;20189;-77
2022/10/29 11:37:36;;;;;;;11.57;6.47;;;-40.00;93.40;;;;;;5032756;28;20192;-76
2022/10/29 11:40:03;;;;;;;14.10;6.03;;;-40.00;94.10;;;;;;5035664;28;20189;-76
2022/10/29 11:42:29;;;;;;;9.97;4.47;;;-40.00;90.70;;;;;;5036605;28;20568;-76
2022/10/29 11:44:57;;;;;;;8.73;4.73;;;-40.00;92.40;;;;;;5036400;28;20188;-76
2022/10/29 11:47:57;;;;;;;10.67;4.33;;;-40.00;87.80;;;;;;5036541;28;20212;-77
2022/10/29 11:50:37;;;;;;;19.17;6.83;;;-40.00;81.30;;;;;;5018432;28;20181;-76
2022/10/29 11:53:25;;;;;;;8.67;4.77;;;-40.00;78.70;;;;;;5033236;28;20199;-75
2022/10/29 11:56:03;;;;;;;11.30;6.37;;;-40.00;72.70;;;;;;5027161;28;20599;-75
2022/10/29 11:58:32;;;;;;;7.70;4.67;;;-40.00;71.30;;;;;;5024063;28;20196;-76
2022/10/29 12:01:16;;;;;;;11.57;5.50;;;-40.00;67.70;;;;;;5040376;28;20259;-75
2022/10/29 12:03:48;;;;;;;11.40;4.93;;;-40.00;70.90;;;;;;5023232;28;20209;-77
2022/10/29 12:06:21;;;;;;;16.27;4.97;;;-40.00;69.20;;;;;;5034899;28;20232;-76
2022/10/29 12:08:52;;;;;;;7.80;4.83;;;-40.00;66.30;;;;;;5036163;28;20191;-75
2022/10/29 12:11:48;;;;;;;8.20;3.50;;;-40.00;62.30;;;;;;5025869;28;20260;-77
2022/10/29 12:14:26;;;;;;;9.63;4.53;;;-40.00;59.80;;;;;;5039362;28;20616;-75
2022/10/29 12:17:04;;;;;;;9.03;4.37;;;-40.00;62.30;;;;;;5022321;28;20192;-76
2022/10/29 12:19:50;;;;;;;6.87;4.30;;;-40.00;64.30;;;;;;5022860;28;20189;-76
2022/10/29 12:22:34;;;;;;;11.53;6.10;;;-40.00;59.20;;;;;;5031650;28;20286;-77
2022/10/29 12:25:22;;;;;;;7.43;4.37;;;-40.00;55.90;;;;;;5035746;28;20193;-73
2022/10/29 12:28:05;;;;;;;7.47;3.93;;;-40.00;54.40;;;;;;5029306;28;20245;-76
2022/10/29 12:30:37;;;;;;;9.77;4.03;;;-40.00;54.40;;;;;;5022418;28;20272;-75
2022/10/29 12:33:09;;;;;;;9.23;4.00;;;-40.00;53.50;;;;;;5041370;28;20215;-73
2022/10/29 12:36:08;;;;;;;10.07;2.87;;;-40.00;56.50;;;;;;5030843;28;20600;-76
2022/10/29 12:38:43;;;;;;;11.47;3.33;;;29.60;93.50;;;;;;5033465;28;20184;-73
2022/10/29 12:41:21;;;;;;;6.33;3.60;;;30.00;94.30;;;;;;5035485;28;20230;-77
2022/10/29 12:43:47;;;;;;;9.10;3.80;;;29.30;95.20;;;;;;5021855;28;20271;-77
2022/10/29 12:46:35;;;;;;;10.87;3.63;;;28.90;95.20;;;;;;5041808;28;20216;-75
2022/10/29 12:49:19;;;;;;;12.55;3.88;;;29.20;94.00;;;;;;5022893;28;20613;-76